Time;durP1;ratioP1;P1;durP2;ratioP2;P2;SDS_P1;SDS_P2;PMS_P1;PMS_P2;Temp;Humidity;BMP_temperature;BMP_pressure;BME280_temperature;BME280_humidity;BME280_pressure;Samples;Min_cycle;Max_cycle;Signal;HPM_P1;HPM_P2
2023/06/29 00:01:34;;;;;;;10.98;5.47;;;19.20;91.60;;;19.15;72.61;100635.84;4947706;29;20631;-84
2023/06/29 00:04:01;;;;;;;11.07;5.30;;;19.10;91.60;;;19.15;72.90;100635.84;4954786;28;20485;-85
2023/06/29 00:06:28;;;;;;;11.07;6.05;;;19.10;91.70;;;19.14;73.40;100628.81;4962603;28;20047;-84
2023/06/29 00:08:58;;;;;;;10.88;6.03;;;19.20;92.40;;;19.12;72.73;100628.25;4967039;28;20495;-84
2023/06/29 00:11:25;;;;;;;10.20;5.18;;;19.10;92.00;;;19.12;72.93;100633.66;4953131;28;20043;-84
2023/06/29 00:13:52;;;;;;;11.38;5.90;;;19.10;91.80;;;19.11;72.88;100634.72;4935805;29;20141;-85
2023/06/29 00:16:19;;;;;;;9.75;5.80;;;19.10;92.00;;;19.11;72.93;100629.31;4954987;28;20474;-84
2023/06/29 00:18:48;;;;;;;10.25;5.53;;;19.10;91.90;;;19.10;72.83;100628.50;4942599;29;20044;-84
2023/06/29 00:21:15;;;;;;;11.45;5.47;;;19.10;92.00;;;19.09;73.54;100632.28;4960222;28;20050;-84
2023/06/29 00:23:43;;;;;;;9.52;5.80;;;19.10;92.50;;;19.10;74.04;100635.81;4966763;28;20043;-84
2023/06/29 00:26:12;;;;;;;9.30;5.40;;;19.10;92.90;;;19.09;73.32;100639.59;4968080;28;20050;-85
2023/06/29 00:28:39;;;;;;;8.63;5.55;;;19.10;92.60;;;19.09;73.56;100634.19;4949576;28;20040;-85
2023/06/29 00:31:06;;;;;;;12.02;5.40;;;19.10;92.70;;;19.09;73.68;100626.88;4948693;28;20473;-85
2023/06/29 00:33:33;;;;;;;9.45;6.05;;;19.10;92.80;;;19.08;73.39;100614.47;4947442;28;20054;-84
2023/06/29 00:36:01;;;;;;;10.98;5.75;;;19.10;92.60;;;19.08;73.59;100619.88;4945457;28;20098;-84
2023/06/29 00:38:30;;;;;;;11.82;6.03;;;19.10;92.80;;;19.09;73.89;100615.25;4970395;28;20053;-84
2023/06/29 00:40:57;;;;;;;12.93;6.55;;;19.10;92.90;;;19.09;73.59;100615.25;4957468;28;20043;-84
2023/06/29 00:43:26;;;;;;;11.32;5.70;;;19.10;92.60;;;19.08;73.98;100616.31;4954134;28;20078;-85
2023/06/29 00:45:54;;;;;;;11.95;6.40;;;19.10;92.80;;;19.08;73.82;100613.63;4960708;28;20098;-84
2023/06/29 00:48:21;;;;;;;12.63;5.97;;;19.10;92.90;;;19.08;74.15;100608.22;4971753;28;20042;-84
2023/06/29 00:50:49;;;;;;;9.88;5.85;;;19.10;93.10;;;19.07;74.02;100609.28;4951514;28;20131;-84
2023/06/29 00:53:16;;;;;;;13.20;5.80;;;19.10;93.20;;;19.07;74.13;100604.69;4951174;28;20040;-84
2023/06/29 00:55:44;;;;;;;12.38;6.13;;;19.10;93.20;;;19.07;74.43;100602.00;4957529;28;20047;-84
2023/06/29 00:58:12;;;;;;;14.27;6.35;;;19.10;93.40;;;19.07;74.79;100606.59;4956036;28;20126;-85
2023/06/29 01:00:41;;;;;;;12.77;6.05;;;19.10;93.40;;;19.07;74.56;100607.41;4952133;28;20180;-84
2023/06/29 01:03:09;;;;;;;10.70;5.75;;;19.10;93.20;;;19.07;74.53;100602.00;4963008;28;20058;-84
2023/06/29 01:05:36;;;;;;;11.75;6.03;;;19.10;93.40;;;19.07;74.18;100596.59;4956313;28;20038;-84
2023/06/29 01:08:12;;;;;;;12.18;6.55;;;19.10;93.20;;;19.09;73.99;100596.34;4944869;28;20432;-84
2023/06/29 01:10:39;;;;;;;9.68;5.78;;;19.10;93.00;;;19.09;74.09;100597.16;4946995;28;20469;-84
2023/06/29 01:13:08;;;;;;;10.30;6.05;;;19.10;92.80;;;19.11;73.40;100592.28;4942370;28;20504;-84
2023/06/29 01:15:37;;;;;;;11.43;6.63;;;19.10;92.40;;;19.11;72.78;100603.09;4950317;28;20051;-84
2023/06/29 01:18:07;;;;;;;14.52;6.35;;;19.20;91.80;;;19.11;72.01;100603.09;4955536;28;20148;-84
2023/06/29 01:20:36;;;;;;;11.80;5.72;;;19.20;91.20;;;19.12;71.78;100595.78;4969843;28;20447;-84
2023/06/29 01:23:11;;;;;;;14.27;6.70;;;19.20;91.10;;;19.13;72.14;100600.13;4964020;28;20047;-84
2023/06/29 01:25:40;;;;;;;12.35;5.93;;;19.20;91.20;;;19.14;71.67;100602.56;4966040;28;20419;-85
2023/06/29 01:28:09;;;;;;;16.45;6.40;;;19.20;90.80;;;19.13;71.11;100597.41;4952209;28;20130;-84
2023/06/29 01:30:39;;;;;;;12.43;5.53;;;19.20;90.20;;;19.13;70.72;100600.97;4971404;28;20051;-84
2023/06/29 01:33:07;;;;;;;12.32;6.00;;;19.20;90.10;;;19.14;71.13;100604.47;4964051;28;20049;-84
2023/06/29 01:35:36;;;;;;;14.88;6.43;;;19.20;90.80;;;19.13;72.16;100592.00;4965199;28;20456;-84
2023/06/29 01:38:14;;;;;;;9.75;5.85;;;19.20;91.60;;;19.12;72.66;100587.69;4950360;29;20051;-85
2023/06/29 01:40:47;;;;;;;13.80;6.55;;;19.10;91.80;;;19.10;72.20;100590.66;4944305;28;20047;-84
2023/06/29 01:43:16;;;;;;;11.30;6.03;;;19.10;91.40;;;19.10;72.38;100587.16;4949649;28;20043;-84
2023/06/29 01:45:45;;;;;;;12.52;5.75;;;19.10;91.50;;;19.09;72.79;100586.34;4956651;28;20062;-84
2023/06/29 01:48:13;;;;;;;12.50;5.80;;;19.10;92.20;;;19.07;71.96;100588.47;4960738;28;20070;-84
2023/06/29 01:50:41;;;;;;;12.30;5.88;;;19.10;91.20;;;19.06;72.26;100581.44;4957867;28;20113;-84
2023/06/29 01:53:08;;;;;;;9.55;5.72;;;19.10;91.60;;;19.06;72.28;100577.94;4958839;28;20138;-84
2023/06/29 01:55:37;;;;;;;10.40;5.88;;;19.00;91.50;;;19.06;72.76;100567.13;4969022;28;20046;-84
2023/06/29 01:58:05;;;;;;;11.63;6.00;;;19.10;91.90;;;19.07;72.31;100568.75;4950206;28;20051;-84
2023/06/29 02:00:32;;;;;;;13.15;6.10;;;19.10;91.50;;;19.07;72.12;100566.84;4943273;28;20134;-84
2023/06/29 02:03:00;;;;;;;10.90;6.00;;;19.10;91.60;;;19.08;72.66;100564.94;4958941;28;20377;-84
2023/06/29 02:05:27;;;;;;;12.50;6.13;;;19.10;91.90;;;19.03;72.92;100563.88;4968683;28;20562;-84
2023/06/29 02:07:54;;;;;;;10.48;5.78;;;19.10;92.20;;;19.03;72.07;100557.63;4958285;28;20053;-84
2023/06/29 02:10:22;;;;;;;11.35;6.25;;;19.00;91.60;;;19.02;72.70;100567.63;4932179;29;20051;-85
2023/06/29 02:12:49;;;;;;;13.48;6.38;;;19.00;91.90;;;19.02;72.73;100575.75;4934341;28;20043;-84
2023/06/29 02:15:18;;;;;;;14.73;5.75;;;19.00;91.90;;;19.02;72.56;100573.03;4953149;28;20043;-84
2023/06/29 02:17:45;;;;;;;11.73;6.15;;;19.00;92.00;;;19.00;72.72;100575.22;4949831;28;20078;-84
2023/06/29 02:20:14;;;;;;;9.23;5.70;;;19.00;92.10;;;18.99;73.48;100573.59;4954659;28;20161;-86
2023/06/29 02:22:41;;;;;;;10.57;6.03;;;19.00;92.60;;;18.97;73.28;100564.91;4954186;28;20044;-85
2023/06/29 02:25:12;;;;;;;13.38;6.07;;;19.00;92.40;;;18.95;73.04;100561.69;4950383;28;20169;-84
2023/06/29 02:27:39;;;;;;;13.05;5.80;;;19.00;92.50;;;18.95;73.03;100563.56;4945999;28;20783;-84
2023/06/29 02:30:08;;;;;;;12.00;6.13;;;19.00;92.70;;;18.94;73.60;100564.66;4934973;28;20579;-84
2023/06/29 02:32:37;;;;;;;9.80;5.65;;;19.00;92.90;;;18.92;73.42;100556.78;4946424;28;20129;-84
2023/06/29 02:35:06;;;;;;;11.45;6.15;;;18.90;92.80;;;18.91;72.82;100557.88;4960269;28;20038;-84
2023/06/29 02:37:34;;;;;;;12.25;6.30;;;18.90;92.40;;;18.91;73.13;100557.88;4949608;28;20055;-84
2023/06/29 02:40:01;;;;;;;10.88;6.18;;;18.90;92.60;;;18.90;72.72;100558.97;4945931;28;20047;-84
2023/06/29 02:42:29;;;;;;;13.30;6.22;;;18.90;92.20;;;18.90;72.19;100555.44;4938522;28;20043;-84
2023/06/29 02:44:56;;;;;;;16.02;5.90;;;18.90;92.00;;;18.88;72.63;100555.69;4959186;28;20625;-84
2023/06/29 02:47:23;;;;;;;13.98;6.15;;;18.90;92.20;;;18.87;72.91;100553.25;4940289;28;20143;-84
2023/06/29 02:49:54;;;;;;;12.57;6.00;;;18.90;92.40;;;18.88;73.08;100552.19;4944115;28;20126;-84
2023/06/29 02:52:22;;;;;;;9.25;5.82;;;18.90;92.80;;;18.86;73.08;100551.63;4945102;28;20393;-84
2023/06/29 02:54:50;;;;;;;12.82;6.28;;;18.90;92.40;;;18.84;72.73;100554.63;4958906;28;20061;-84
2023/06/29 02:57:19;;;;;;;11.07;5.63;;;18.90;92.40;;;18.84;73.22;100546.50;4949876;28;20126;-84
2023/06/29 02:59:46;;;;;;;11.10;6.00;;;18.90;92.90;;;18.83;72.91;100542.16;4950772;28;20113;-85
2023/06/29 03:02:13;;;;;;;11.10;6.10;;;18.80;92.50;;;18.82;73.08;100545.94;4964827;28;20043;-84
2023/06/29 03:04:42;;;;;;;10.55;6.05;;;18.80;92.60;;;18.82;73.37;100545.94;4958879;28;20061;-84
2023/06/29 03:07:10;;;;;;;11.13;5.82;;;18.80;92.60;;;18.81;73.49;100548.91;4947215;28;20389;-84
2023/06/29 03:09:37;;;;;;;10.48;6.40;;;18.80;92.60;;;18.81;72.96;100543.50;4952259;28;20073;-84
2023/06/29 03:12:06;;;;;;;13.00;6.07;;;18.80;92.50;;;18.81;73.43;100530.81;4964475;28;20467;-84
2023/06/29 03:14:33;;;;;;;10.82;6.03;;;18.80;92.50;;;18.81;73.00;100538.91;4958169;28;20053;-85
2023/06/29 03:17:00;;;;;;;10.80;6.30;;;18.90;92.60;;;18.81;72.50;100549.72;4964150;28;20136;-84
2023/06/29 03:19:28;;;;;;;11.52;5.93;;;18.90;92.00;;;18.81;72.90;100544.31;4960368;28;20090;-85
2023/06/29 03:21:55;;;;;;;11.82;6.18;;;18.90;92.40;;;18.80;72.73;100542.72;4965578;28;20583;-84
2023/06/29 03:24:23;;;;;;;12.20;6.63;;;18.90;92.40;;;18.81;72.41;100533.50;4948972;28;20050;-84
2023/06/29 03:26:51;;;;;;;13.35;6.40;;;18.90;92.20;;;18.83;71.73;100533.25;4949163;29;20158;-84
2023/06/29 03:29:18;;;;;;;11.40;5.85;;;18.90;91.60;;;18.84;71.52;100530.28;4951764;28;20113;-84
2023/06/29 03:31:45;;;;;;;19.55;6.40;;;18.90;91.10;;;18.84;71.00;100530.28;4963018;28;20043;-84
2023/06/29 03:34:13;;;;;;;10.45;6.13;;;18.90;90.60;;;18.87;71.01;100531.63;4956996;28;20126;-84
2023/06/29 03:36:40;;;;;;;9.80;6.18;;;19.00;90.70;;;18.88;70.51;100527.84;4963542;28;20058;-84
2023/06/29 03:39:07;;;;;;;13.75;6.85;;;19.00;90.20;;;18.90;70.15;100521.13;4954018;28;20491;-84
2023/06/29 03:41:36;;;;;;;15.10;6.43;;;19.00;89.90;;;18.93;69.79;100525.97;4944502;28;20113;-84
2023/06/29 03:44:03;;;;;;;10.38;5.70;;;19.00;89.50;;;18.95;69.91;100528.44;4954203;28;20102;-84
2023/06/29 03:46:31;;;;;;;13.63;6.30;;;19.00;89.50;;;18.97;70.06;100520.88;4960357;28;20077;-84
2023/06/29 03:48:58;;;;;;;14.05;5.60;;;19.10;89.70;;;18.98;70.23;100522.47;4961250;28;20130;-84
2023/06/29 03:51:25;;;;;;;12.07;5.45;;;19.10;89.80;;;18.99;70.17;100518.72;4972825;28;20070;-84
2023/06/29 03:53:52;;;;;;;10.52;5.60;;;19.10;89.70;;;19.00;70.32;100521.16;4962625;28;20043;-84
2023/06/29 03:56:19;;;;;;;12.13;6.05;;;19.10;89.70;;;19.01;70.90;100522.78;4972665;28;20453;-84
2023/06/29 03:58:48;;;;;;;10.32;5.93;;;19.10;90.30;;;19.01;71.10;100524.66;4948885;28;20039;-84
2023/06/29 04:01:15;;;;;;;12.75;5.82;;;19.10;90.10;;;19.03;71.64;100522.50;4944713;28;20094;-84
2023/06/29 04:03:42;;;;;;;11.95;5.70;;;19.10;90.90;;;19.03;71.24;100514.38;4956011;28;20053;-84
2023/06/29 04:06:10;;;;;;;12.90;6.22;;;19.10;90.50;;;19.03;71.10;100508.97;4978685;23;20130;-75
2023/06/29 04:08:37;;;;;;;12.32;6.18;;;19.10;90.40;;;19.06;71.36;100513.06;4949565;28;20547;-75
2023/06/29 04:11:04;;;;;;;13.82;5.88;;;19.10;90.60;;;19.07;70.85;100511.97;4953041;28;20051;-75
2023/06/29 04:13:31;;;;;;;14.95;6.20;;;19.10;90.50;;;19.08;70.87;100509.03;4959773;28;20043;-75
2023/06/29 04:16:00;;;;;;;14.73;5.72;;;19.10;90.40;;;19.07;70.96;100503.84;4959474;28;20055;-75
2023/06/29 04:18:27;;;;;;;11.75;5.40;;;19.10;90.30;;;19.07;70.89;100501.97;4951892;28;20039;-75
2023/06/29 04:20:54;;;;;;;13.07;6.18;;;19.10;90.60;;;19.08;71.25;100502.78;4952672;29;20459;-75
2023/06/29 04:23:21;;;;;;;12.27;6.13;;;19.10;90.60;;;19.07;70.82;100510.06;4959089;28;20408;-75
2023/06/29 04:25:49;;;;;;;15.07;6.40;;;19.10;90.60;;;19.10;71.23;100503.34;4964152;28;20078;-75
2023/06/29 04:28:16;;;;;;;13.65;5.88;;;19.10;90.80;;;19.11;71.30;100505.75;4968890;28;20046;-75
2023/06/29 04:30:44;;;;;;;14.23;6.18;;;19.20;90.70;;;19.13;71.32;100500.09;4951216;29;20047;-75
2023/06/29 04:33:15;;;;;;;10.77;6.25;;;19.20;90.60;;;19.14;70.64;100494.44;4958319;28;20134;-75
2023/06/29 04:35:43;;;;;;;12.13;6.68;;;19.20;90.00;;;19.17;69.88;100493.06;4955678;28;20071;-75
2023/06/29 04:38:13;;;;;;;11.48;6.05;;;19.30;89.50;;;19.19;70.35;100490.91;4952794;28;20130;-75
2023/06/29 04:40:42;;;;;;;12.90;6.95;;;19.30;89.80;;;19.21;69.46;100488.75;4952489;29;20129;-75
2023/06/29 04:43:09;;;;;;;13.70;7.30;;;19.30;89.10;;;19.23;69.69;100482.00;4950577;28;20048;-75
2023/06/29 04:45:36;;;;;;;14.82;7.18;;;19.30;89.20;;;19.25;69.92;100481.72;4964010;28;20499;-75
2023/06/29 04:48:04;;;;;;;14.98;6.90;;;19.30;89.40;;;19.27;69.72;100490.38;4954265;28;20159;-75
2023/06/29 04:50:35;;;;;;;15.38;8.02;;;19.30;89.40;;;19.27;69.63;100483.06;4950007;29;20126;-76
2023/06/29 04:53:08;;;;;;;13.82;7.50;;;19.40;89.00;;;19.29;69.31;100480.13;4948938;28;20110;-75
2023/06/29 04:55:37;;;;;;;14.02;7.88;;;19.40;89.20;;;19.30;69.92;100484.44;4955539;28;20050;-76
2023/06/29 04:58:04;;;;;;;14.82;7.30;;;19.40;89.30;;;19.30;69.63;100482.53;4950352;29;20102;-75
2023/06/29 05:00:32;;;;;;;13.43;7.53;;;19.40;89.20;;;19.30;70.15;100479.03;4950565;28;20044;-76
2023/06/29 05:03:00;;;;;;;12.07;7.20;;;19.40;89.50;;;19.29;69.89;100477.41;4954047;28;20519;-75
2023/06/29 05:05:27;;;;;;;14.55;6.90;;;19.30;89.30;;;19.29;70.47;100478.22;4964517;28;20054;-75
2023/06/29 05:07:56;;;;;;;15.73;6.75;;;19.30;89.90;;;19.29;70.12;100480.13;4952096;29;20050;-75
2023/06/29 05:10:24;;;;;;;14.82;7.22;;;19.30;89.70;;;19.28;69.20;100479.31;4952090;29;20377;-76
2023/06/29 05:12:51;;;;;;;10.48;6.43;;;19.30;89.00;;;19.29;70.71;100474.72;4946219;28;20039;-75
2023/06/29 05:15:18;;;;;;;13.73;7.38;;;19.30;90.00;;;19.30;70.09;100471.72;4950093;28;20055;-75
2023/06/29 05:17:45;;;;;;;14.10;6.78;;;19.40;89.70;;;19.32;70.11;100479.56;4957378;28;20081;-75
2023/06/29 05:20:17;;;;;;;12.35;7.07;;;19.40;89.50;;;19.35;70.42;100478.22;4951672;28;20039;-75
2023/06/29 05:22:44;;;;;;;16.45;7.15;;;19.40;89.80;;;19.34;70.33;100476.59;4950339;28;20102;-75
2023/06/29 05:25:14;;;;;;;12.50;7.32;;;19.40;89.90;;;19.34;71.10;100472.00;4955245;28;20078;-75
2023/06/29 05:27:41;;;;;;;14.23;7.43;;;19.40;90.30;;;19.37;70.46;100476.06;4971194;28;20047;-75
2023/06/29 05:30:10;;;;;;;16.30;7.65;;;19.40;90.00;;;19.39;71.42;100472.00;4952887;28;20043;-75
2023/06/29 05:32:38;;;;;;;12.95;6.85;;;19.50;90.20;;;19.41;71.02;100475.25;4955005;28;20090;-75
2023/06/29 05:35:06;;;;;;;13.65;6.78;;;19.50;90.40;;;19.43;71.02;100466.88;4962510;28;20048;-75
2023/06/29 05:37:33;;;;;;;9.10;6.43;;;19.50;90.50;;;19.45;70.61;100470.94;4948614;29;20499;-75
2023/06/29 05:40:00;;;;;;;12.15;7.07;;;19.60;90.00;;;19.48;70.54;100470.41;4951063;28;20035;-74
2023/06/29 05:42:29;;;;;;;17.17;7.97;;;19.60;89.90;;;19.51;70.31;100469.03;4948577;29;20543;-74
2023/06/29 05:44:56;;;;;;;11.10;6.43;;;19.70;89.70;;;19.54;70.34;100469.31;4949589;28;20070;-75
2023/06/29 05:47:24;;;;;;;13.50;7.38;;;19.70;89.50;;;19.58;69.53;100474.19;4953960;28;20061;-75
2023/06/29 05:49:52;;;;;;;11.95;6.75;;;19.70;89.10;;;19.63;69.73;100471.50;4949716;28;20051;-75
2023/06/29 05:52:19;;;;;;;14.80;7.30;;;19.80;89.20;;;19.65;69.41;100469.34;4948601;28;20047;-75
2023/06/29 05:54:46;;;;;;;11.70;6.45;;;19.80;88.90;;;19.69;69.07;100473.13;4952185;28;20106;-75
2023/06/29 05:57:13;;;;;;;17.85;7.75;;;19.80;88.60;;;19.71;68.12;100471.75;4955636;28;20035;-75
2023/06/29 05:59:42;;;;;;;13.30;7.50;;;19.80;87.90;;;19.75;67.84;100463.91;4950655;28;20047;-75
2023/06/29 06:02:09;;;;;;;16.45;7.50;;;19.90;87.70;;;19.77;67.68;100459.06;4948739;28;20050;-75
2023/06/29 06:04:36;;;;;;;13.45;6.93;;;19.90;87.60;;;19.79;67.68;100467.69;4957481;28;20368;-75
2023/06/29 06:07:04;;;;;;;11.73;6.57;;;19.90;87.50;;;19.81;68.07;100468.22;4952872;28;20127;-74
2023/06/29 06:09:31;;;;;;;12.10;6.70;;;19.90;87.50;;;19.83;67.67;100463.38;4949701;28;20043;-74
2023/06/29 06:11:59;;;;;;;14.30;7.82;;;19.90;87.10;;;19.85;67.07;100461.19;4949010;29;20047;-75
2023/06/29 06:14:26;;;;;;;16.20;7.45;;;20.00;87.10;;;19.89;67.12;100466.88;4953640;28;20055;-75
2023/06/29 06:16:55;;;;;;;10.23;6.50;;;20.00;86.90;;;19.91;67.79;100475.53;4954007;28;20039;-76
2023/06/29 06:19:22;;;;;;;14.13;7.50;;;20.00;87.10;;;19.93;67.77;100474.19;4950681;28;20058;-76
2023/06/29 06:21:49;;;;;;;14.77;7.43;;;20.00;87.00;;;19.96;67.45;100468.22;4950216;28;20055;-76
2023/06/29 06:24:16;;;;;;;14.07;6.78;;;20.10;87.10;;;20.00;67.50;100463.88;4951406;28;20043;-76
2023/06/29 06:26:43;;;;;;;17.88;6.82;;;20.10;86.80;;;20.04;67.26;100470.34;4948106;28;20035;-76
2023/06/29 06:29:11;;;;;;;13.10;6.97;;;20.10;86.70;;;20.06;67.13;100468.22;4947540;29;20070;-76
2023/06/29 06:31:38;;;;;;;13.07;6.35;;;20.20;86.50;;;20.09;66.67;100471.44;4951607;28;20046;-76
2023/06/29 06:34:06;;;;;;;16.17;7.07;;;20.20;86.30;;;20.11;67.05;100472.00;4958501;28;20054;-76
2023/06/29 06:36:34;;;;;;;18.83;7.38;;;20.20;86.50;;;20.13;66.89;100467.91;4948196;28;20043;-76
2023/06/29 06:39:01;;;;;;;14.13;7.13;;;20.20;86.10;;;20.15;66.26;100463.03;4947369;29;20051;-77
2023/06/29 06:41:28;;;;;;;14.15;7.00;;;20.30;85.70;;;20.20;66.10;100464.91;4946642;28;20066;-76
2023/06/29 06:43:57;;;;;;;11.02;6.70;;;20.30;85.70;;;20.23;65.75;100467.06;4948397;28;20138;-76
2023/06/29 06:46:24;;;;;;;10.93;6.30;;;20.40;85.40;;;20.27;66.29;100466.25;4947146;28;20066;-76
2023/06/29 06:48:52;;;;;;;13.25;6.70;;;20.50;85.50;;;20.32;66.43;100466.22;4949738;28;20106;-74
2023/06/29 06:51:21;;;;;;;13.40;7.40;;;20.50;85.50;;;20.35;66.04;100470.31;4948796;28;20062;-77
2023/06/29 06:53:48;;;;;;;11.88;6.93;;;20.50;85.40;;;20.38;65.88;100471.63;4957557;28;20051;-77
2023/06/29 06:56:15;;;;;;;13.45;7.20;;;20.50;85.30;;;20.39;65.99;100465.94;4953458;28;20039;-74
2023/06/29 06:58:43;;;;;;;15.02;6.72;;;20.60;85.30;;;20.41;65.69;100465.66;4949567;28;20055;-75
2023/06/29 07:01:11;;;;;;;15.57;6.93;;;20.60;85.20;;;20.45;65.59;100475.69;4955232;28;20505;-77
2023/06/29 07:03:38;;;;;;;13.13;6.30;;;20.60;85.00;;;20.46;65.09;100469.16;4963556;28;20074;-78
2023/06/29 07:06:05;;;;;;;11.75;6.10;;;20.60;84.70;;;20.47;65.33;100470.81;4955939;28;20344;-75
2023/06/29 07:08:35;;;;;;;11.02;5.93;;;20.60;84.70;;;20.49;65.14;100471.34;4951173;28;20047;-76
2023/06/29 07:11:02;;;;;;;10.18;5.90;;;20.60;84.60;;;20.51;65.02;100469.19;4951314;28;20150;-76
2023/06/29 07:13:31;;;;;;;10.10;5.47;;;20.70;84.80;;;20.52;65.22;100472.69;4964137;28;20043;-76
2023/06/29 07:15:58;;;;;;;11.13;5.78;;;20.70;84.60;;;20.53;65.01;100477.81;4952394;28;20046;-76
2023/06/29 07:18:26;;;;;;;11.00;5.80;;;20.60;84.70;;;20.52;65.33;100459.16;4961735;28;20050;-76
2023/06/29 07:20:53;;;;;;;9.52;5.53;;;20.60;84.90;;;20.53;65.49;100466.19;4950073;28;20146;-76
2023/06/29 07:23:20;;;;;;;12.45;6.18;;;20.60;84.90;;;20.54;65.46;100460.47;4953505;28;20511;-76
2023/06/29 07:25:50;;;;;;;12.60;5.97;;;20.60;84.90;;;20.56;64.96;100457.50;4952599;28;20051;-76
2023/06/29 07:28:17;;;;;;;13.27;6.10;;;20.70;84.80;;;20.56;65.28;100460.22;4956386;28;20051;-76
2023/06/29 07:30:44;;;;;;;9.77;5.53;;;20.70;84.90;;;20.56;65.11;100458.31;4962592;28;20067;-76
2023/06/29 07:33:11;;;;;;;16.08;6.13;;;20.70;84.70;;;20.57;65.30;100454.50;4958064;28;20055;-76
2023/06/29 07:35:39;;;;;;;10.98;5.72;;;20.70;84.80;;;20.59;65.04;100456.94;4952580;28;20049;-76
2023/06/29 07:38:06;;;;;;;11.65;5.60;;;20.70;84.80;;;20.61;65.20;100456.69;4950091;28;20145;-76
2023/06/29 07:40:33;;;;;;;11.77;5.53;;;20.70;84.60;;;20.62;64.75;100467.22;4954781;28;20559;-76
2023/06/29 07:43:02;;;;;;;8.98;4.90;;;20.70;84.50;;;20.63;65.20;100459.91;4966017;28;20083;-76
2023/06/29 07:45:29;;;;;;;12.02;5.45;;;20.70;84.50;;;20.63;65.23;100466.13;4960977;28;20464;-76
2023/06/29 07:47:56;;;;;;;10.65;5.10;;;20.70;84.60;;;20.62;65.10;100463.72;4950477;28;20685;-76
2023/06/29 07:50:24;;;;;;;9.05;5.60;;;20.70;84.70;;;20.63;65.45;100463.44;4955994;28;20132;-76
2023/06/29 07:52:51;;;;;;;12.30;6.20;;;20.70;85.00;;;20.65;65.80;100461.25;4964180;28;20071;-75
2023/06/29 07:55:18;;;;;;;12.27;5.07;;;20.70;85.30;;;20.66;66.06;100464.78;4954513;28;20539;-75
2023/06/29 07:57:46;;;;;;;9.50;5.15;;;20.70;85.30;;;20.68;65.79;100457.16;4952598;28;20051;-75
2023/06/29 08:00:16;;;;;;;10.60;5.70;;;20.80;85.00;;;20.70;65.50;100457.72;4977789;28;20161;-75
2023/06/29 08:02:46;;;;;;;10.30;5.50;;;20.80;84.90;;;20.70;65.24;100461.25;4950417;28;20512;-74
2023/06/29 08:05:14;;;;;;;10.60;5.63;;;20.80;84.70;;;20.71;65.44;100462.03;4952313;28;20057;-74
2023/06/29 08:07:42;;;;;;;10.13;5.05;;;20.80;84.70;;;20.73;65.38;100462.56;4950218;29;20102;-74
2023/06/29 08:10:10;;;;;;;11.05;5.25;;;20.80;84.60;;;20.74;65.30;100456.03;4967273;28;20463;-74
2023/06/29 08:12:38;;;;;;;12.27;4.97;;;20.80;84.60;;;20.75;65.19;100465.81;4957617;28;20146;-76
2023/06/29 08:15:06;;;;;;;11.00;5.07;;;20.90;84.80;;;20.76;65.48;100462.81;4947862;28;20135;-75
2023/06/29 08:17:35;;;;;;;10.00;5.30;;;20.80;84.90;;;20.76;65.43;100459.31;4948644;28;20138;-75
2023/06/29 08:20:05;;;;;;;11.93;5.80;;;20.80;84.80;;;20.78;65.90;100460.63;4947662;28;20047;-75
2023/06/29 08:22:32;;;;;;;12.93;5.55;;;20.90;85.20;;;20.80;66.25;100450.34;4964306;28;20633;-75
2023/06/29 08:25:00;;;;;;;9.15;5.15;;;20.90;85.10;;;20.82;65.86;100450.84;4954745;28;20487;-75
2023/06/29 08:27:27;;;;;;;12.82;5.20;;;20.90;85.10;;;20.83;66.18;100454.38;4953394;28;20469;-75
2023/06/29 08:29:55;;;;;;;9.57;5.80;;;20.90;85.10;;;20.88;66.38;100448.94;4942749;28;20051;-75
2023/06/29 08:32:22;;;;;;;11.57;6.13;;;21.00;85.10;;;20.92;65.79;100450.00;4951534;28;20057;-74
2023/06/29 08:34:50;;;;;;;13.98;5.55;;;21.00;84.70;;;20.94;65.51;100447.81;4950209;28;20061;-75
2023/06/29 08:37:18;;;;;;;15.35;5.80;;;21.10;84.70;;;20.99;65.35;100453.22;4948043;28;20085;-75
2023/06/29 08:39:45;;;;;;;13.52;6.80;;;21.10;84.50;;;21.04;65.67;100450.47;4951594;28;20456;-75
2023/06/29 08:42:12;;;;;;;15.75;7.28;;;21.20;84.80;;;21.07;66.10;100449.88;4960050;28;20082;-75
2023/06/29 08:44:39;;;;;;;11.65;6.60;;;21.30;84.80;;;21.13;65.69;100452.56;4950121;29;20058;-75
2023/06/29 08:47:07;;;;;;;13.90;6.97;;;21.30;84.50;;;21.17;65.70;100445.50;4946453;28;20171;-76
2023/06/29 08:49:37;;;;;;;11.77;6.82;;;21.30;84.40;;;21.19;65.31;100446.03;4949854;28;20046;-74
2023/06/29 08:52:07;;;;;;;15.02;6.55;;;21.30;84.30;;;21.21;65.51;100451.97;4950639;28;20043;-74
2023/06/29 08:54:35;;;;;;;15.13;7.43;;;21.30;84.40;;;21.21;65.34;100441.94;4951468;28;20125;-74
2023/06/29 08:57:05;;;;;;;16.67;7.25;;;21.40;84.50;;;21.23;65.47;100441.66;4940706;28;20119;-74
2023/06/29 08:59:33;;;;;;;14.52;6.80;;;21.40;84.50;;;21.25;65.41;100437.56;4952891;28;20046;-74
2023/06/29 09:02:01;;;;;;;14.30;7.20;;;21.40;84.40;;;21.26;65.53;100441.09;4958567;28;20038;-75
2023/06/29 09:04:28;;;;;;;16.83;7.05;;;21.40;84.40;;;21.25;65.30;100439.47;4952472;28;20054;-75
2023/06/29 09:06:56;;;;;;;13.00;6.57;;;21.40;84.50;;;21.25;65.82;100439.47;4941420;28;20527;-74
2023/06/29 09:09:26;;;;;;;16.05;8.10;;;21.30;84.90;;;21.26;65.90;100444.59;4950165;28;20082;-82
2023/06/29 09:11:55;;;;;;;12.57;6.72;;;21.40;84.90;;;21.27;65.47;100439.97;4955196;28;20404;-85
2023/06/29 09:14:25;;;;;;;15.18;7.53;;;21.40;84.70;;;21.30;65.48;100436.72;4952861;28;20066;-85
2023/06/29 09:16:56;;;;;;;13.10;7.75;;;21.40;84.60;;;21.29;65.13;100437.81;4949459;28;20130;-85
2023/06/29 09:19:24;;;;;;;14.30;7.40;;;21.40;84.50;;;21.28;65.18;100431.59;4944605;28;20049;-85
2023/06/29 09:21:51;;;;;;;14.45;8.23;;;21.30;84.70;;;21.29;65.14;100432.38;4955431;28;20047;-85
2023/06/29 09:24:19;;;;;;;14.40;8.48;;;21.40;84.50;;;21.28;65.06;100434.28;4950052;28;20073;-85
2023/06/29 09:26:51;;;;;;;14.25;8.25;;;21.30;84.50;;;21.28;65.54;100434.28;4946268;28;20126;-84
2023/06/29 09:29:18;;;;;;;16.02;8.27;;;21.30;84.70;;;21.30;65.50;100434.00;4950429;28;20118;-85
2023/06/29 09:31:55;;;;;;;15.98;8.85;;;21.30;84.70;;;21.29;65.28;100435.09;4949374;28;20046;-84
2023/06/29 09:34:25;;;;;;;18.77;8.05;;;21.30;84.60;;;21.26;65.38;100431.03;4950879;28;20102;-76
2023/06/29 09:36:53;;;;;;;15.45;8.60;;;21.30;84.60;;;21.27;65.36;100431.84;4948744;28;20062;-76
2023/06/29 09:39:21;;;;;;;15.48;8.35;;;21.30;84.50;;;21.30;65.74;100429.41;4958023;28;20053;-76
2023/06/29 09:41:52;;;;;;;17.70;8.23;;;21.40;84.90;;;21.32;65.57;100429.13;4945750;28;20495;-76
2023/06/29 09:44:23;;;;;;;19.10;8.05;;;21.40;84.70;;;21.31;65.50;100431.03;4949785;28;20049;-76
2023/06/29 09:46:51;;;;;;;17.95;9.07;;;21.40;84.60;;;21.30;65.10;100421.28;4949409;28;20043;-77
2023/06/29 09:49:18;;;;;;;17.05;8.50;;;21.40;84.50;;;21.30;65.12;100426.69;4954874;28;20098;-76
2023/06/29 09:51:48;;;;;;;12.77;7.53;;;21.40;84.30;;;21.34;66.29;100426.97;4952051;28;20050;-77
2023/06/29 09:54:16;;;;;;;16.63;8.57;;;21.40;85.00;;;21.37;66.03;100429.09;4958818;28;20047;-76
2023/06/29 09:56:44;;;;;;;17.05;8.63;;;21.40;85.00;;;21.38;66.07;100428.00;4948950;28;20071;-76
2023/06/29 09:59:13;;;;;;;15.73;7.70;;;21.40;84.90;;;21.38;66.31;100436.16;4961699;28;20403;-77
2023/06/29 10:01:41;;;;;;;13.45;7.95;;;21.40;85.30;;;21.38;66.57;100430.72;4962910;28;20058;-76
2023/06/29 10:04:08;;;;;;;16.98;8.30;;;21.50;85.30;;;21.42;66.91;100433.66;4947715;28;20040;-76
2023/06/29 10:06:43;;;;;;;20.45;9.20;;;21.50;85.50;;;21.44;66.45;100426.06;4945494;28;20043;-76
2023/06/29 10:09:13;;;;;;;21.92;9.85;;;21.50;85.50;;;21.44;66.35;100429.59;4954973;28;20058;-76
2023/06/29 10:11:46;;;;;;;19.17;9.45;;;21.50;85.30;;;21.46;66.08;100421.94;4958519;23;20051;-83